createdAt,value
2022-10-26T00:01:05.971Z,45.03
2022-10-26T00:03:33.955Z,46.70
2022-10-26T00:06:17.726Z,55.27
2022-10-26T00:08:44.825Z,49.47
2022-10-26T00:11:12.242Z,50.13
2022-10-26T00:13:39.768Z,46.00
2022-10-26T00:16:21.152Z,48.57
2022-10-26T00:18:47.851Z,46.03
2022-10-26T00:21:14.320Z,47.13
2022-10-26T00:23:40.760Z,43.40
2022-10-26T00:26:07.708Z,53.73
2022-10-26T00:28:34.536Z,46.43
2022-10-26T00:31:06.149Z,53.70
2022-10-26T00:33:33.314Z,49.73
2022-10-26T00:35:59.797Z,50.47
2022-10-26T00:38:26.292Z,51.00
2022-10-26T00:40:52.939Z,51.00
2022-10-26T00:43:22.236Z,46.33
2022-10-26T00:45:52.202Z,51.57
2022-10-26T00:48:26.999Z,50.17
2022-10-26T00:50:54.413Z,59.70
2022-10-26T00:53:20.967Z,57.90
2022-10-26T00:55:49.486Z,49.73
2022-10-26T00:58:16.517Z,48.53
2022-10-26T01:00:43.563Z,53.13
2022-10-26T01:03:11.013Z,54.80
2022-10-26T01:05:41.443Z,46.17
2022-10-26T01:08:08.630Z,48.90
2022-10-26T01:10:36.044Z,45.80
2022-10-26T01:13:02.981Z,46.83
2022-10-26T01:15:38.580Z,48.97
2022-10-26T01:18:12.685Z,42.20
2022-10-26T01:20:59.244Z,47.63
2022-10-26T01:24:06.821Z,46.87
2022-10-26T01:29:37.958Z,46.50
2022-10-26T01:32:13.203Z,56.73
2022-10-26T01:34:46.060Z,49.57
2022-10-26T01:37:14.461Z,48.87
2022-10-26T01:39:46.843Z,49.47
2022-10-26T01:42:14.091Z,45.83
2022-10-26T01:44:44.729Z,48.90
2022-10-26T01:47:13.882Z,55.90
2022-10-26T01:49:55.860Z,49.10
2022-10-26T01:52:22.975Z,44.33
2022-10-26T01:54:49.664Z,51.40
2022-10-26T01:57:19.418Z,47.80
2022-10-26T02:00:07.415Z,48.67
2022-10-26T02:03:15.320Z,52.13
2022-10-26T02:05:45.436Z,49.50
2022-10-26T02:08:39.858Z,54.40
2022-10-26T02:11:29.792Z,58.00
2022-10-26T02:16:58.688Z,54.93
2022-10-26T02:19:44.899Z,55.67
2022-10-26T02:22:16.819Z,53.70
2022-10-26T02:24:43.807Z,57.83
2022-10-26T02:27:14.468Z,62.37
2022-10-26T02:29:41.431Z,55.97
2022-10-26T02:32:08.485Z,53.87
2022-10-26T02:34:36.720Z,55.70
2022-10-26T02:37:04.654Z,60.43
2022-10-26T02:39:33.444Z,53.63
2022-10-26T02:42:04.934Z,56.53
2022-10-26T02:44:42.718Z,54.37
2022-10-26T02:47:09.683Z,53.00
2022-10-26T02:49:36.296Z,58.93
2022-10-26T02:52:10.787Z,53.63
2022-10-26T02:54:54.426Z,57.37
2022-10-26T02:57:24.804Z,52.33
2022-10-26T02:59:52.161Z,59.73
2022-10-26T03:02:19.788Z,55.83
2022-10-26T03:04:47.440Z,55.07
2022-10-26T03:07:13.930Z,61.23
2022-10-26T03:09:40.323Z,55.87
2022-10-26T03:12:06.887Z,66.57
2022-10-26T03:14:33.793Z,61.10
2022-10-26T03:17:00.244Z,60.73
2022-10-26T03:19:26.894Z,55.70
2022-10-26T03:21:53.491Z,60.77
2022-10-26T03:24:19.987Z,60.20
2022-10-26T03:26:46.520Z,64.27
2022-10-26T03:29:13.226Z,65.87
2022-10-26T03:31:39.764Z,68.03
2022-10-26T03:34:06.213Z,59.73
2022-10-26T03:36:33.065Z,60.23
2022-10-26T03:38:59.568Z,66.77
2022-10-26T03:41:26.042Z,63.60
2022-10-26T03:43:52.572Z,62.77
2022-10-26T03:46:19.073Z,60.73
2022-10-26T03:48:45.494Z,64.73
2022-10-26T03:51:11.915Z,61.67
2022-10-26T03:53:38.599Z,60.40
2022-10-26T03:56:05.331Z,58.17
2022-10-26T03:58:32.614Z,58.67
2022-10-26T04:00:59.127Z,60.77
2022-10-26T04:03:25.648Z,56.37
2022-10-26T04:05:52.270Z,60.03
2022-10-26T04:08:19.198Z,64.93
2022-10-26T04:10:46.296Z,64.30
2022-10-26T04:13:13.208Z,58.23
2022-10-26T04:15:39.669Z,58.50
2022-10-26T04:18:06.306Z,59.97
2022-10-26T04:20:34.172Z,55.37
2022-10-26T04:23:02.604Z,53.07
2022-10-26T04:25:32.995Z,61.10
2022-10-26T04:28:00.901Z,57.77
2022-10-26T04:30:27.327Z,49.47
2022-10-26T04:32:53.806Z,54.83
2022-10-26T04:35:20.582Z,56.97
2022-10-26T04:37:46.978Z,50.33
2022-10-26T04:40:13.543Z,53.60
2022-10-26T04:42:47.776Z,58.50
2022-10-26T04:45:17.269Z,52.80
2022-10-26T04:47:44.192Z,53.87
2022-10-26T04:50:12.512Z,54.43
2022-10-26T04:52:39.840Z,58.57
2022-10-26T04:55:07.145Z,54.70
2022-10-26T04:57:34.325Z,60.53
2022-10-26T05:00:01.888Z,56.83
2022-10-26T05:02:28.811Z,61.30
2022-10-26T05:04:55.316Z,66.37
2022-10-26T05:07:21.861Z,63.27
2022-10-26T05:09:48.373Z,60.13
2022-10-26T05:12:14.884Z,58.20
2022-10-26T05:14:41.432Z,59.20
2022-10-26T05:17:07.873Z,62.13
2022-10-26T05:19:34.625Z,60.13
2022-10-26T05:22:01.174Z,57.83
2022-10-26T05:24:27.582Z,58.87
2022-10-26T05:26:54.051Z,61.63
2022-10-26T05:29:20.508Z,64.07
2022-10-26T05:31:46.903Z,54.73
2022-10-26T05:34:13.740Z,50.50
2022-10-26T05:36:40.178Z,62.13
2022-10-26T05:39:06.683Z,56.57
2022-10-26T05:41:33.138Z,62.17
2022-10-26T05:43:59.702Z,57.20
2022-10-26T05:46:26.183Z,57.77
2022-10-26T05:48:52.897Z,61.93
2022-10-26T05:51:19.415Z,58.80
2022-10-26T05:53:45.833Z,62.40
2022-10-26T05:56:20.959Z,57.60
2022-10-26T05:58:48.193Z,58.90
2022-10-26T06:01:49.457Z,61.47
2022-10-26T06:04:38.501Z,63.27
2022-10-26T06:07:11.657Z,56.77
2022-10-26T06:09:38.843Z,59.03
2022-10-26T06:12:07.357Z,48.80
2022-10-26T06:14:35.051Z,48.87
2022-10-26T06:17:10.674Z,54.83
2022-10-26T06:19:47.310Z,51.80
2022-10-26T06:22:21.923Z,49.90
2022-10-26T06:24:58.195Z,51.57
2022-10-26T06:27:46.625Z,48.53
2022-10-26T06:30:13.361Z,44.13
2022-10-26T06:32:41.638Z,44.67
2022-10-26T06:35:33.275Z,47.93
2022-10-26T06:38:03.416Z,45.10
2022-10-26T06:40:32.472Z,43.27
2022-10-26T06:43:00.234Z,44.43
2022-10-26T06:45:27.135Z,41.90
2022-10-26T06:48:06.714Z,42.97
2022-10-26T06:50:51.629Z,56.70
2022-10-26T06:53:32.261Z,50.27
2022-10-26T06:55:59.518Z,52.17
2022-10-26T06:58:29.492Z,52.83
2022-10-26T07:00:56.423Z,49.87
2022-10-26T07:03:22.976Z,59.17
2022-10-26T07:05:49.676Z,52.47
2022-10-26T07:08:16.102Z,52.03
2022-10-26T07:10:43.568Z,50.90
2022-10-26T07:13:10.858Z,49.67
2022-10-26T07:15:38.374Z,48.97
2022-10-26T07:18:05.818Z,52.43
2022-10-26T07:20:36.603Z,50.43
2022-10-26T07:23:03.717Z,49.50
2022-10-26T07:25:30.906Z,52.67
2022-10-26T07:27:59.086Z,50.47
2022-10-26T07:30:29.275Z,47.03
2022-10-26T07:33:00.703Z,47.13
2022-10-26T07:35:27.487Z,53.77
2022-10-26T07:37:58.556Z,38.10
2022-10-26T07:40:25.218Z,41.47
2022-10-26T07:42:52.402Z,45.63
2022-10-26T07:45:19.781Z,43.20
2022-10-26T07:47:46.257Z,37.47
2022-10-26T07:50:13.054Z,43.60
2022-10-26T07:52:41.308Z,42.00
2022-10-26T07:55:11.975Z,39.87
2022-10-26T07:57:38.727Z,40.07
2022-10-26T08:00:07.337Z,37.27
2022-10-26T08:02:34.555Z,39.80
2022-10-26T08:05:01.156Z,41.10
2022-10-26T08:07:27.921Z,36.03
2022-10-26T08:09:54.363Z,34.67
2022-10-26T08:12:21.203Z,36.13
2022-10-26T08:14:47.833Z,42.20
2022-10-26T08:17:14.277Z,36.87
2022-10-26T08:19:40.739Z,31.53
2022-10-26T08:22:07.467Z,38.77
2022-10-26T08:24:34.103Z,33.50
2022-10-26T08:27:00.547Z,40.03
2022-10-26T08:29:27.145Z,36.70
2022-10-26T08:31:53.770Z,38.07
2022-10-26T08:34:20.263Z,35.57
2022-10-26T08:36:46.710Z,43.40
2022-10-26T08:39:13.311Z,41.50
2022-10-26T08:41:44.551Z,45.87
2022-10-26T08:44:19.808Z,44.87
2022-10-26T08:46:50.433Z,41.47
2022-10-26T08:49:20.818Z,42.27
2022-10-26T08:51:49.220Z,48.27
2022-10-26T08:54:22.881Z,44.40
2022-10-26T08:56:52.435Z,43.90
2022-10-26T08:59:36.140Z,47.17
2022-10-26T09:02:02.893Z,45.40
2022-10-26T09:04:32.818Z,50.67
2022-10-26T09:07:28.177Z,40.13
2022-10-26T09:13:06.459Z,40.20
2022-10-26T09:15:57.197Z,42.23
2022-10-26T09:18:55.851Z,38.37
2022-10-26T09:21:29.442Z,43.83
2022-10-26T09:24:28.472Z,40.20
2022-10-26T09:27:03.152Z,37.27
2022-10-26T09:29:32.435Z,36.83
2022-10-26T09:32:00.590Z,32.67
2022-10-26T09:34:37.124Z,36.80
2022-10-26T09:37:23.340Z,37.13
2022-10-26T09:40:06.083Z,37.70
2022-10-26T09:42:39.689Z,38.43
2022-10-26T09:45:52.666Z,34.07
2022-10-26T09:48:45.529Z,36.83
2022-10-26T09:51:12.288Z,35.60
2022-10-26T09:53:38.752Z,30.37
2022-10-26T09:56:10.807Z,30.37
2022-10-26T09:59:04.477Z,31.70
2022-10-26T10:01:38.506Z,32.03
2022-10-26T10:04:14.230Z,36.03
2022-10-26T10:06:41.279Z,37.63
2022-10-26T10:09:15.597Z,38.53
2022-10-26T10:11:54.765Z,36.00
2022-10-26T10:14:23.531Z,40.70
2022-10-26T10:17:01.594Z,35.47
2022-10-26T10:19:31.411Z,37.57
2022-10-26T10:22:02.678Z,30.00
2022-10-26T10:24:33.212Z,31.70
2022-10-26T10:27:16.661Z,37.03
2022-10-26T10:29:45.148Z,39.10
2022-10-26T10:32:22.769Z,37.53
2022-10-26T10:34:50.719Z,41.57
2022-10-26T10:37:25.441Z,39.87
2022-10-26T10:39:57.255Z,42.53
2022-10-26T10:42:27.321Z,44.37
2022-10-26T10:44:55.449Z,38.77
2022-10-26T10:47:25.044Z,43.73
2022-10-26T10:50:14.653Z,36.57
2022-10-26T10:52:41.738Z,38.13
2022-10-26T10:55:28.456Z,35.67
2022-10-26T10:58:08.479Z,33.83
2022-10-26T11:00:37.141Z,40.63
2022-10-26T11:03:26.007Z,33.63
2022-10-26T11:06:17.665Z,42.00
2022-10-26T11:08:51.237Z,37.47
2022-10-26T11:11:26.164Z,43.23
2022-10-26T11:13:57.197Z,38.37
2022-10-26T11:16:28.048Z,30.20
2022-10-26T11:18:59.345Z,28.93
2022-10-26T11:21:28.932Z,30.93
2022-10-26T11:24:13.284Z,27.53
2022-10-26T11:27:02.335Z,30.97
2022-10-26T11:29:48.660Z,33.53
2022-10-26T11:32:24.175Z,39.40
2022-10-26T11:34:58.605Z,38.23
2022-10-26T11:37:38.371Z,35.67
2022-10-26T11:40:26.254Z,39.23
2022-10-26T11:43:13.945Z,47.07
2022-10-26T11:45:45.442Z,46.13
2022-10-26T11:48:32.710Z,38.93
2022-10-26T11:50:59.702Z,35.50
2022-10-26T11:53:38.972Z,28.50
2022-10-26T11:56:14.257Z,27.37
2022-10-26T11:58:41.279Z,29.27
2022-10-26T12:01:12.390Z,27.83
2022-10-26T12:03:45.503Z,29.47
2022-10-26T12:06:13.987Z,27.97
2022-10-26T12:08:47.734Z,32.10
2022-10-26T12:11:25.912Z,33.43
2022-10-26T12:14:00.005Z,32.03
2022-10-26T12:16:42.200Z,28.50
2022-10-26T12:19:32.582Z,27.57
2022-10-26T12:21:59.332Z,32.50
2022-10-26T12:24:28.681Z,30.10
2022-10-26T12:26:57.327Z,34.83
2022-10-26T12:29:37.008Z,30.13
2022-10-26T12:32:05.762Z,29.67
2022-10-26T12:34:38.873Z,34.73
2022-10-26T12:37:37.120Z,34.17
2022-10-26T12:40:33.000Z,33.30
2022-10-26T12:43:14.451Z,26.33
2022-10-26T12:45:41.989Z,29.60
2022-10-26T12:48:34.650Z,28.70
2022-10-26T12:51:24.651Z,36.37
2022-10-26T12:54:40.124Z,35.53
2022-10-26T12:57:24.346Z,32.13
2022-10-26T13:00:05.809Z,30.93
2022-10-26T13:03:03.911Z,35.27
2022-10-26T13:06:05.810Z,28.57
2022-10-26T13:08:40.843Z,27.40
2022-10-26T13:11:21.609Z,27.20
2022-10-26T13:13:57.767Z,31.57
2022-10-26T13:16:25.734Z,29.70
2022-10-26T13:18:52.301Z,35.73
2022-10-26T13:21:20.655Z,26.33
2022-10-26T13:23:58.306Z,30.13
2022-10-26T13:26:26.765Z,26.80
2022-10-26T13:28:55.476Z,28.13
2022-10-26T13:31:32.021Z,28.47
2022-10-26T13:34:01.522Z,24.27
2022-10-26T13:36:34.720Z,26.47
2022-10-26T13:39:06.733Z,23.87
2022-10-26T13:41:36.825Z,26.23
2022-10-26T13:44:05.865Z,23.40
2022-10-26T13:46:36.406Z,23.63
2022-10-26T13:49:20.550Z,21.63
2022-10-26T13:51:49.891Z,22.17
2022-10-26T13:54:40.365Z,25.10
2022-10-26T13:57:17.533Z,26.13
2022-10-26T13:59:45.372Z,27.37
2022-10-26T14:02:20.546Z,25.00
2022-10-26T14:05:00.266Z,22.00
2022-10-26T14:07:35.852Z,29.03
2022-10-26T14:10:02.540Z,22.83
2022-10-26T14:12:29.291Z,26.83
2022-10-26T14:15:05.865Z,24.23
2022-10-26T14:17:32.584Z,20.53
2022-10-26T14:19:59.715Z,27.77
2022-10-26T14:22:27.947Z,22.43
2022-10-26T14:24:57.012Z,25.57
2022-10-26T14:27:26.040Z,25.53
2022-10-26T14:30:20.488Z,20.93
2022-10-26T14:32:41.088Z,21.50
2022-10-26T14:35:12.999Z,24.60
2022-10-26T14:37:47.429Z,26.10
2022-10-26T14:40:17.683Z,20.30
2022-10-26T14:42:49.996Z,27.77
2022-10-26T14:45:47.642Z,23.70
2022-10-26T14:48:24.004Z,20.77
2022-10-26T14:51:04.134Z,25.43
2022-10-26T14:53:35.833Z,32.80
2022-10-26T14:56:04.864Z,21.17
2022-10-26T14:58:33.094Z,23.73
2022-10-26T15:01:25.384Z,21.03
2022-10-26T15:04:04.343Z,27.07
2022-10-26T15:06:32.936Z,26.83
2022-10-26T15:09:00.836Z,25.27
2022-10-26T15:11:28.536Z,30.53
2022-10-26T15:13:56.038Z,34.80
2022-10-26T15:16:24.918Z,25.63
2022-10-26T15:18:58.725Z,30.77
2022-10-26T15:21:31.401Z,30.97
2022-10-26T15:23:59.067Z,31.23
2022-10-26T15:26:25.680Z,30.57
2022-10-26T15:28:53.870Z,27.40
2022-10-26T15:31:20.190Z,25.30
2022-10-26T15:33:52.605Z,23.90
2022-10-26T15:36:20.648Z,30.80
2022-10-26T15:38:51.690Z,26.57
2022-10-26T15:41:22.450Z,29.40
2022-10-26T15:43:49.836Z,29.20
2022-10-26T15:46:16.489Z,27.70
2022-10-26T15:48:43.441Z,28.20
2022-10-26T15:51:13.696Z,31.27
2022-10-26T15:53:40.288Z,35.83
2022-10-26T15:56:14.899Z,24.63
2022-10-26T15:58:41.496Z,30.87
2022-10-26T16:01:08.019Z,28.57
2022-10-26T16:03:34.717Z,32.03
2022-10-26T16:06:02.240Z,30.73
2022-10-26T16:08:31.131Z,37.07
2022-10-26T16:10:57.663Z,57.63
2022-10-26T16:13:24.279Z,38.47
2022-10-26T16:15:50.737Z,33.23
2022-10-26T16:18:17.710Z,33.30
2022-10-26T16:20:47.045Z,31.60
2022-10-26T16:23:13.630Z,31.30
2022-10-26T16:25:45.239Z,29.47
2022-10-26T16:28:14.526Z,33.73
2022-10-26T16:33:12.754Z,31.37
2022-10-26T16:35:39.285Z,32.77
2022-10-26T16:38:05.794Z,37.17
2022-10-26T16:40:32.350Z,43.70
2022-10-26T16:42:58.978Z,35.30
2022-10-26T16:45:25.495Z,37.47
2022-10-26T16:47:52.233Z,38.13
2022-10-26T16:50:21.264Z,42.73
2022-10-26T16:52:47.727Z,40.63
2022-10-26T16:55:14.250Z,39.73
2022-10-26T16:57:40.736Z,38.87
2022-10-26T17:00:07.616Z,36.63
2022-10-26T17:02:34.426Z,41.57
2022-10-26T17:05:04.244Z,43.50
2022-10-26T17:07:33.656Z,36.67
2022-10-26T17:10:00.103Z,36.63
2022-10-26T17:15:00.649Z,42.43
2022-10-26T17:17:27.183Z,38.87
2022-10-26T17:19:53.658Z,35.17
2022-10-26T17:22:20.258Z,35.67
2022-10-26T17:24:46.703Z,34.40
2022-10-26T17:27:13.128Z,40.63
2022-10-26T17:29:39.878Z,39.17
2022-10-26T17:32:06.337Z,38.20
2022-10-26T17:34:33.066Z,37.33
2022-10-26T17:36:59.467Z,37.10
2022-10-26T17:39:25.920Z,39.50
2022-10-26T17:41:52.408Z,37.90
2022-10-26T17:44:18.841Z,45.10
2022-10-26T17:46:45.521Z,49.17
2022-10-26T17:49:11.925Z,49.60
2022-10-26T17:51:38.591Z,48.33
2022-10-26T17:54:05.133Z,46.53
2022-10-26T17:56:33.245Z,40.43
2022-10-26T17:59:05.249Z,39.53
2022-10-26T18:01:32.716Z,46.00
2022-10-26T18:03:59.471Z,46.43
2022-10-26T18:06:26.503Z,39.60
2022-10-26T18:08:53.017Z,46.30
2022-10-26T18:11:26.403Z,47.50
2022-10-26T18:13:54.795Z,47.60
2022-10-26T18:16:24.844Z,44.80
2022-10-26T18:19:00.605Z,40.90
2022-10-26T18:21:28.757Z,41.47
2022-10-26T18:23:55.785Z,44.20
2022-10-26T18:26:24.193Z,39.37
2022-10-26T18:28:50.691Z,39.90
2022-10-26T18:31:19.356Z,35.97
2022-10-26T18:33:46.171Z,48.50
2022-10-26T18:36:17.501Z,56.17
2022-10-26T18:38:44.474Z,40.97
2022-10-26T18:41:11.772Z,35.60
2022-10-26T18:43:46.287Z,40.63
2022-10-26T18:46:18.968Z,39.73
2022-10-26T18:48:47.974Z,37.87
2022-10-26T18:51:16.497Z,34.23
2022-10-26T18:53:44.217Z,38.93
2022-10-26T18:56:18.654Z,49.63
2022-10-26T18:58:47.193Z,45.03
2022-10-26T19:01:19.990Z,42.43
2022-10-26T19:03:47.367Z,40.93
2022-10-26T19:06:19.350Z,41.37
2022-10-26T19:08:46.571Z,44.33
2022-10-26T19:11:15.412Z,47.33
2022-10-26T19:13:42.450Z,45.10
2022-10-26T19:16:17.147Z,48.23
2022-10-26T19:18:48.582Z,45.20
2022-10-26T19:21:20.292Z,40.23
2022-10-26T19:23:49.706Z,43.43
2022-10-26T19:26:44.137Z,45.00
2022-10-26T19:29:16.129Z,48.90
2022-10-26T19:31:44.211Z,48.23
2022-10-26T19:34:12.074Z,43.17
2022-10-26T19:36:39.691Z,42.97
2022-10-26T19:39:07.440Z,49.77
2022-10-26T19:41:33.949Z,41.63
2022-10-26T19:44:00.458Z,47.30
2022-10-26T19:46:28.743Z,46.83
2022-10-26T19:48:57.875Z,42.83
2022-10-26T19:51:25.447Z,48.70
2022-10-26T19:53:52.011Z,47.87
2022-10-26T19:56:20.533Z,42.47
2022-10-26T19:58:47.607Z,42.17
2022-10-26T20:01:16.339Z,39.47
2022-10-26T20:03:43.260Z,37.47
2022-10-26T20:06:18.461Z,42.60
2022-10-26T20:08:46.898Z,47.80
2022-10-26T20:11:15.775Z,45.67
2022-10-26T20:13:44.674Z,47.07
2022-10-26T20:16:11.894Z,46.27
2022-10-26T20:18:41.236Z,48.67
2022-10-26T20:21:11.421Z,55.17
2022-10-26T20:23:37.858Z,51.17
2022-10-26T20:28:35.811Z,46.30
2022-10-26T20:31:02.379Z,48.40
2022-10-26T20:33:28.852Z,56.53
2022-10-26T20:35:59.004Z,57.27
2022-10-26T20:38:26.245Z,51.10
2022-10-26T20:40:57.614Z,45.90
2022-10-26T20:43:24.962Z,49.63
2022-10-26T20:45:51.892Z,43.97
2022-10-26T20:48:19.306Z,49.03
2022-10-26T20:50:54.575Z,48.40
2022-10-26T20:53:28.361Z,44.57
2022-10-26T20:55:57.288Z,46.33
2022-10-26T20:58:39.900Z,43.13
2022-10-26T21:01:25.260Z,45.80
2022-10-26T21:03:53.071Z,48.47
2022-10-26T21:06:19.725Z,51.57
2022-10-26T21:08:48.404Z,54.73
2022-10-26T21:11:14.904Z,55.63
2022-10-26T21:13:43.131Z,46.73
2022-10-26T21:16:09.965Z,53.73
2022-10-26T21:18:36.476Z,51.83
2022-10-26T21:21:03.011Z,46.63
2022-10-26T21:23:30.965Z,45.13
2022-10-26T21:25:57.484Z,39.50
2022-10-26T21:28:23.939Z,52.83
2022-10-26T21:30:50.501Z,53.63
2022-10-26T21:33:18.933Z,58.47
2022-10-26T21:35:54.617Z,46.63
2022-10-26T21:38:21.224Z,46.37
2022-10-26T21:40:47.666Z,46.53
2022-10-26T21:43:14.436Z,46.97
2022-10-26T21:45:40.982Z,49.83
2022-10-26T21:48:07.501Z,48.40
2022-10-26T21:50:34.080Z,47.17
2022-10-26T21:53:00.660Z,44.03
2022-10-26T21:55:27.309Z,49.33
2022-10-26T21:57:54.025Z,58.87
2022-10-26T22:00:20.599Z,48.13
2022-10-26T22:02:47.033Z,51.43
2022-10-26T22:05:13.479Z,56.97
2022-10-26T22:07:39.944Z,56.80
2022-10-26T22:10:13.917Z,53.17
2022-10-26T22:12:40.469Z,53.17
2022-10-26T22:15:07.486Z,59.07
2022-10-26T22:17:38.105Z,55.73
2022-10-26T22:20:05.828Z,62.93
2022-10-26T22:22:32.623Z,62.73
2022-10-26T22:24:59.165Z,61.93
2022-10-26T22:27:25.870Z,56.57
2022-10-26T22:29:52.283Z,57.13
2022-10-26T22:32:18.981Z,59.37
2022-10-26T22:34:46.009Z,61.93
2022-10-26T22:37:12.869Z,61.07
2022-10-26T22:39:39.434Z,58.17
2022-10-26T22:42:05.901Z,58.30
2022-10-26T22:44:32.758Z,58.17
2022-10-26T22:46:59.728Z,57.43
2022-10-26T22:49:26.303Z,59.33
2022-10-26T22:51:52.847Z,54.40
2022-10-26T22:54:20.023Z,60.17
2022-10-26T22:56:46.691Z,65.00
2022-10-26T22:59:13.335Z,56.47
2022-10-26T23:01:41.844Z,56.63
2022-10-26T23:04:11.767Z,60.47
2022-10-26T23:06:38.477Z,56.27
2022-10-26T23:09:06.049Z,61.33
2022-10-26T23:11:32.789Z,59.27
2022-10-26T23:14:00.932Z,56.97
2022-10-26T23:16:28.513Z,56.53
2022-10-26T23:18:55.131Z,64.13
2022-10-26T23:21:23.500Z,62.23
2022-10-26T23:23:50.200Z,60.43
2022-10-26T23:26:18.931Z,53.07
2022-10-26T23:28:45.705Z,57.73
2022-10-26T23:31:16.344Z,66.37
2022-10-26T23:33:43.289Z,63.47
2022-10-26T23:36:09.750Z,61.47
2022-10-26T23:38:36.161Z,64.03
2022-10-26T23:41:02.581Z,67.53
2022-10-26T23:43:29.198Z,88.30
2022-10-26T23:45:56.063Z,79.30
2022-10-26T23:48:23.024Z,91.70
2022-10-26T23:50:50.432Z,90.33
2022-10-26T23:53:19.054Z,108.30
2022-10-26T23:55:46.279Z,103.97
2022-10-26T23:58:13.345Z,91.43
